Lagos, Nigeria
Current Conditions -  °F | °C
As of 2:00 PM on Monday 22 Dec 2014 (Local Time) from DBBB Reporting Station
Scattered Clouds Scattered Clouds  
Wind Chill: 86°   Ceiling: Unl
Heat Index: 105°   Visibility: 6mi
Dew Point: 82°   Wind: 9mph
Humidity: 89%   Direction: 190°S
Pressure: 29.83"   Gusts: NA
Location:  6.45°N, 3.47°E
Report Text: DBBB 221300Z 19008KT 9999 SCT012 30/28 Q1010 NOSIG
Loading
Personal Weather Stations






























Interactive Weather Map New forecast layout! Learn more

10-Day Weather Forecast

Advertisements
Track Severe Weather on mobile